createdAt,value
2018-12-19T00:00:03.492Z,22.62
2018-12-19T00:02:35.030Z,23.85
2018-12-19T00:05:07.070Z,24.82
2018-12-19T00:07:39.148Z,25.72
2018-12-19T00:10:11.349Z,24.45
2018-12-19T00:12:42.549Z,24.10
2018-12-19T00:15:14.369Z,22.62
2018-12-19T00:17:46.409Z,24.80
2018-12-19T00:20:19.430Z,22.98
2018-12-19T00:22:51.953Z,24.23
2018-12-19T00:25:23.929Z,23.70
2018-12-19T00:27:55.311Z,24.63
2018-12-19T00:30:26.850Z,24.90
2018-12-19T00:32:58.890Z,24.00
2018-12-19T00:35:31.231Z,23.02
2018-12-19T00:38:03.309Z,22.40
2018-12-19T00:40:35.768Z,20.57
2018-12-19T00:43:07.810Z,22.05
2018-12-19T00:45:40.970Z,23.50
2018-12-19T00:48:12.608Z,21.68
2018-12-19T00:50:45.012Z,21.57
2018-12-19T00:53:17.570Z,22.98
2018-12-19T00:55:49.570Z,21.75
2018-12-19T00:58:21.349Z,21.65
2018-12-19T01:00:53.450Z,21.80
2018-12-19T01:03:26.109Z,21.55
2018-12-19T01:05:57.668Z,22.77
2018-12-19T01:08:29.600Z,22.22
2018-12-19T01:11:01.909Z,22.87
2018-12-19T01:13:33.412Z,23.02
2018-12-19T01:16:05.634Z,20.88
2018-12-19T01:18:37.210Z,20.45
2018-12-19T01:21:09.310Z,20.17
2018-12-19T01:23:40.831Z,22.35
2018-12-19T01:26:13.070Z,22.02
2018-12-19T01:28:44.670Z,21.70
2018-12-19T01:31:16.910Z,22.90
2018-12-19T01:33:48.530Z,23.05
2018-12-19T01:36:21.410Z,22.80
2018-12-19T01:38:52.969Z,23.00
2018-12-19T01:41:26.011Z,22.65
2018-12-19T01:43:58.031Z,21.12
2018-12-19T01:46:30.573Z,21.40
2018-12-19T01:49:02.010Z,21.12
2018-12-19T01:51:33.950Z,21.95
2018-12-19T01:54:05.511Z,23.60
2018-12-19T01:56:38.329Z,22.95
2018-12-19T01:59:09.730Z,23.07
2018-12-19T02:01:42.550Z,22.30
2018-12-19T02:04:14.349Z,23.05
2018-12-19T02:06:46.431Z,23.42
2018-12-19T02:09:17.631Z,23.00
2018-12-19T02:11:49.450Z,23.20
2018-12-19T02:14:20.729Z,23.12
2018-12-19T02:16:52.671Z,23.07
2018-12-19T02:19:24.590Z,24.05
2018-12-19T02:21:57.211Z,23.02
2018-12-19T02:24:29.410Z,24.00
2018-12-19T02:27:02.410Z,21.45
2018-12-19T02:29:34.632Z,22.65
2018-12-19T02:32:10.070Z,21.93
2018-12-19T02:34:41.629Z,22.70
2018-12-19T02:37:13.970Z,21.15
2018-12-19T02:39:45.710Z,21.07
2018-12-19T02:42:17.012Z,17.82
2018-12-19T02:44:48.773Z,18.25
2018-12-19T02:47:20.931Z,17.73
2018-12-19T02:49:52.589Z,16.67
2018-12-19T02:52:24.249Z,17.00
2018-12-19T02:54:56.451Z,17.23
2018-12-19T02:57:28.373Z,17.57
2018-12-19T03:00:00.470Z,18.25
2018-12-19T03:02:32.610Z,16.85
2018-12-19T03:05:04.229Z,16.87
2018-12-19T03:07:36.190Z,16.10
2018-12-19T03:10:08.689Z,17.10
2018-12-19T03:12:40.611Z,16.75
2018-12-19T03:15:12.729Z,17.57
2018-12-19T03:17:44.789Z,18.32
2018-12-19T03:20:16.350Z,19.82
2018-12-19T03:22:48.569Z,18.67
2018-12-19T03:25:20.510Z,18.27
2018-12-19T03:27:52.935Z,19.98
2018-12-19T03:30:25.516Z,18.50
2018-12-19T03:32:57.630Z,17.20
2018-12-19T03:35:29.448Z,15.35
2018-12-19T03:38:01.549Z,14.40
2018-12-19T03:40:33.489Z,13.45
2018-12-19T03:43:05.569Z,15.20
2018-12-19T03:45:37.751Z,14.35
2018-12-19T03:48:11.508Z,13.20
2018-12-19T03:50:43.008Z,15.60
2018-12-19T03:53:15.009Z,15.05
2018-12-19T03:55:47.229Z,16.45
2018-12-19T03:58:19.249Z,19.55
2018-12-19T04:00:50.548Z,18.65
2018-12-19T04:03:22.489Z,18.27
2018-12-19T04:05:54.892Z,20.95
2018-12-19T04:08:26.909Z,22.25
2018-12-19T04:10:59.689Z,21.17
2018-12-19T04:13:30.529Z,19.85
2018-12-19T04:16:04.289Z,21.27
2018-12-19T04:18:35.917Z,21.17
2018-12-19T04:21:07.949Z,21.45
2018-12-19T04:23:39.669Z,21.33
2018-12-19T04:26:11.293Z,21.60
2018-12-19T04:28:42.490Z,20.95
2018-12-19T04:31:15.212Z,19.92
2018-12-19T04:33:46.630Z,13.13
2018-12-19T04:36:19.070Z,9.48
2018-12-19T04:38:51.012Z,9.03
2018-12-19T04:41:23.391Z,9.03
2018-12-19T04:43:55.169Z,9.35
2018-12-19T04:46:27.030Z,9.40
2018-12-19T04:48:59.032Z,9.00
2018-12-19T04:51:31.169Z,9.40
2018-12-19T04:54:03.611Z,8.25
2018-12-19T04:56:35.632Z,8.13
2018-12-19T04:59:06.752Z,9.00
2018-12-19T05:01:38.790Z,9.88
2018-12-19T05:04:10.191Z,9.60
2018-12-19T05:06:42.111Z,9.53
2018-12-19T05:09:14.350Z,8.83
2018-12-19T05:11:45.729Z,9.10
2018-12-19T05:14:17.992Z,10.15
2018-12-19T05:16:49.720Z,9.65
2018-12-19T05:19:21.470Z,10.40
2018-12-19T05:21:53.269Z,10.32
2018-12-19T05:24:25.289Z,10.80
2018-12-19T05:26:56.890Z,10.25
2018-12-19T05:29:28.990Z,11.03
2018-12-19T05:32:00.992Z,12.85
2018-12-19T05:34:33.610Z,16.20
2018-12-19T05:37:04.791Z,19.85
2018-12-19T05:39:36.090Z,18.37
2018-12-19T05:42:07.750Z,20.35
2018-12-19T05:44:40.490Z,13.95
2018-12-19T05:47:13.115Z,14.75
2018-12-19T05:49:45.450Z,12.90
2018-12-19T05:52:17.431Z,13.30
2018-12-19T05:54:49.251Z,13.62
2018-12-19T05:57:21.473Z,13.20
2018-12-19T05:59:53.131Z,14.53
2018-12-19T06:02:25.870Z,14.00
2018-12-19T06:04:57.851Z,12.65
2018-12-19T06:07:30.112Z,12.73
2018-12-19T06:10:01.390Z,12.85
2018-12-19T06:12:33.973Z,15.10
2018-12-19T06:15:05.791Z,12.15
2018-12-19T06:17:38.211Z,13.53
2018-12-19T06:20:10.111Z,13.05
2018-12-19T06:22:41.811Z,12.65
2018-12-19T06:25:14.436Z,12.50
2018-12-19T06:27:45.951Z,12.88
2018-12-19T06:30:18.111Z,13.13
2018-12-19T06:32:50.271Z,12.53
2018-12-19T06:35:22.692Z,13.40
2018-12-19T06:37:55.393Z,14.00
2018-12-19T06:40:32.621Z,14.60
2018-12-19T06:43:02.371Z,14.05
2018-12-19T06:45:34.549Z,14.90
2018-12-19T06:48:06.490Z,17.07
2018-12-19T06:50:38.192Z,25.52
2018-12-19T06:53:10.090Z,19.35
2018-12-19T06:55:41.892Z,18.57
2018-12-19T06:58:13.931Z,18.17
2018-12-19T07:00:45.591Z,18.32
2018-12-19T07:03:17.270Z,19.35
2018-12-19T07:05:49.632Z,20.00
2018-12-19T07:08:21.590Z,19.10
2018-12-19T07:10:53.891Z,18.15
2018-12-19T07:13:25.851Z,18.60
2018-12-19T07:15:57.193Z,18.50
2018-12-19T07:18:29.610Z,21.40
2018-12-19T07:21:01.830Z,21.70
2018-12-19T07:23:34.911Z,18.80
2018-12-19T07:26:06.571Z,21.05
2018-12-19T07:28:38.331Z,22.00
2018-12-19T07:31:10.691Z,18.00
2018-12-19T07:33:43.160Z,15.55
2018-12-19T07:36:15.630Z,16.40
2018-12-19T07:38:47.970Z,17.00
2018-12-19T07:41:19.752Z,19.57
2018-12-19T07:43:51.931Z,15.78
2018-12-19T07:46:24.402Z,20.45
2018-12-19T07:48:57.472Z,12.53
2018-12-19T07:51:28.994Z,10.05
2018-12-19T07:54:01.190Z,8.95
2018-12-19T07:56:33.651Z,7.62
2018-12-19T07:59:06.530Z,8.70
2018-12-19T08:01:38.830Z,8.28
2018-12-19T08:04:10.952Z,9.28
2018-12-19T08:06:41.670Z,9.70
2018-12-19T08:09:13.951Z,10.95
2018-12-19T08:11:45.571Z,12.75
2018-12-19T08:14:18.073Z,12.10
2018-12-19T08:16:49.752Z,12.30
2018-12-19T08:19:21.771Z,12.20
2018-12-19T08:21:54.037Z,14.68
2018-12-19T08:24:26.273Z,14.50
2018-12-19T08:26:58.188Z,15.28
2018-12-19T08:29:31.427Z,15.55
2018-12-19T08:32:04.990Z,17.77
2018-12-19T08:34:36.926Z,15.85
2018-12-19T08:37:08.906Z,17.45
2018-12-19T08:39:41.428Z,24.18
2018-12-19T08:42:13.946Z,18.75
2018-12-19T08:44:45.862Z,19.57
2018-12-19T08:47:17.579Z,19.50
2018-12-19T08:49:49.621Z,18.20
2018-12-19T08:52:21.642Z,18.77
2018-12-19T08:54:54.241Z,20.55
2018-12-19T08:57:26.550Z,13.62
2018-12-19T08:59:59.900Z,12.65
2018-12-19T09:02:31.971Z,12.30
2018-12-19T09:05:03.129Z,8.60
2018-12-19T09:07:35.465Z,9.45
2018-12-19T09:10:07.666Z,7.10
2018-12-19T09:12:40.027Z,7.35
2018-12-19T09:15:12.567Z,7.85
2018-12-19T09:17:44.824Z,9.20
2018-12-19T09:20:17.305Z,12.68
2018-12-19T09:22:48.765Z,11.75
2018-12-19T09:25:21.424Z,11.15
2018-12-19T09:27:53.225Z,10.40
2018-12-19T09:30:25.306Z,8.70
2018-12-19T09:32:57.005Z,11.75
2018-12-19T09:35:27.385Z,8.35
2018-12-19T09:37:57.386Z,9.35
2018-12-19T09:40:27.490Z,6.55
2018-12-19T09:42:58.703Z,7.10
2018-12-19T09:45:28.585Z,7.20
2018-12-19T09:47:58.903Z,7.80
2018-12-19T09:50:30.524Z,9.48
2018-12-19T09:53:02.765Z,10.98
2018-12-19T09:55:34.722Z,12.13
2018-12-19T09:58:07.446Z,13.95
2018-12-19T10:00:39.743Z,12.00
2018-12-19T10:03:12.303Z,14.03
2018-12-19T10:05:43.563Z,14.03
2018-12-19T10:08:15.900Z,12.65
2018-12-19T10:10:48.521Z,11.88
2018-12-19T10:13:21.202Z,12.05
2018-12-19T10:15:53.150Z,18.25
2018-12-19T10:18:25.581Z,14.65
2018-12-19T10:20:57.303Z,10.93
2018-12-19T10:23:30.241Z,11.90
2018-12-19T10:26:05.701Z,12.70
2018-12-19T10:28:38.123Z,12.50
2018-12-19T10:31:10.021Z,13.98
2018-12-19T10:33:41.962Z,13.53
2018-12-19T10:36:14.743Z,9.40
2018-12-19T10:38:46.361Z,12.23
2018-12-19T10:41:18.541Z,14.30
2018-12-19T10:43:50.592Z,13.28
2018-12-19T10:46:22.273Z,14.50
2018-12-19T10:48:55.453Z,10.88
2018-12-19T10:51:27.253Z,9.95
2018-12-19T10:53:59.770Z,10.03
2018-12-19T10:56:30.638Z,9.13
2018-12-19T10:59:03.011Z,7.92
2018-12-19T11:01:34.931Z,9.00
2018-12-19T11:04:06.839Z,15.95
2018-12-19T11:06:38.651Z,11.97
2018-12-19T11:09:11.150Z,13.93
2018-12-19T11:11:42.810Z,15.72
2018-12-19T11:14:14.711Z,12.80
2018-12-19T11:16:45.790Z,12.07
2018-12-19T11:19:18.114Z,11.95
2018-12-19T11:21:51.196Z,12.63
2018-12-19T11:24:26.964Z,12.40
2018-12-19T11:26:57.630Z,9.70
2018-12-19T11:29:29.457Z,10.95
2018-12-19T11:32:01.880Z,12.78
2018-12-19T11:34:33.872Z,13.22
2018-12-19T11:37:05.886Z,12.40
2018-12-19T11:39:38.593Z,12.50
2018-12-19T11:42:09.500Z,13.13
2018-12-19T11:44:40.663Z,13.22
2018-12-19T11:47:12.483Z,12.37
2018-12-19T11:49:44.527Z,13.03
2018-12-19T11:52:15.723Z,11.85
2018-12-19T11:54:48.204Z,11.78
2018-12-19T11:57:20.044Z,11.15
2018-12-19T11:59:52.383Z,12.15
2018-12-19T12:02:23.985Z,12.05
2018-12-19T12:04:55.794Z,12.85
2018-12-19T12:07:28.284Z,10.70
2018-12-19T12:09:59.916Z,13.75
2018-12-19T12:12:30.442Z,12.47
2018-12-19T12:15:01.607Z,11.70
2018-12-19T12:17:32.718Z,11.65
2018-12-19T12:20:04.848Z,11.30
2018-12-19T12:22:36.189Z,10.13
2018-12-19T12:25:08.488Z,9.43
2018-12-19T12:27:40.167Z,10.35
2018-12-19T12:30:11.967Z,10.35
2018-12-19T12:32:44.548Z,9.23
2018-12-19T12:35:16.108Z,11.45
2018-12-19T12:37:47.789Z,9.80
2018-12-19T12:40:18.657Z,12.53
2018-12-19T12:42:49.600Z,12.35
2018-12-19T12:45:22.437Z,11.30
2018-12-19T12:47:53.698Z,12.60
2018-12-19T12:50:25.562Z,12.58
2018-12-19T12:52:56.938Z,11.75
2018-12-19T12:55:29.458Z,13.88
2018-12-19T12:58:01.077Z,11.73
2018-12-19T13:00:32.846Z,13.70
2018-12-19T13:03:04.619Z,11.97
2018-12-19T13:05:37.256Z,11.00
2018-12-19T13:08:08.781Z,12.65
2018-12-19T13:10:40.837Z,13.35
2018-12-19T13:13:12.179Z,14.33
2018-12-19T13:15:47.896Z,12.50
2018-12-19T13:18:19.518Z,12.35
2018-12-19T13:20:51.104Z,14.73
2018-12-19T13:23:22.965Z,16.02
2018-12-19T13:25:55.745Z,15.58
2018-12-19T13:28:27.525Z,17.82
2018-12-19T13:30:59.108Z,17.10
2018-12-19T13:33:31.045Z,17.62
2018-12-19T13:36:04.505Z,18.17
2018-12-19T13:38:34.865Z,17.10
2018-12-19T13:41:06.446Z,19.00
2018-12-19T13:43:38.669Z,18.85
2018-12-19T13:46:10.629Z,19.92
2018-12-19T13:48:42.033Z,18.10
2018-12-19T13:51:13.695Z,20.95
2018-12-19T13:53:45.396Z,19.42
2018-12-19T13:56:17.373Z,22.98
2018-12-19T13:58:49.273Z,19.30
2018-12-19T14:01:21.334Z,18.60
2018-12-19T14:03:52.870Z,18.37
2018-12-19T14:06:25.429Z,16.82
2018-12-19T14:08:56.870Z,31.68
2018-12-19T14:11:29.350Z,29.30
2018-12-19T14:14:01.393Z,21.95
2018-12-19T14:16:33.205Z,23.80
2018-12-19T14:19:05.144Z,19.87
2018-12-19T14:21:36.823Z,17.55
2018-12-19T14:24:12.581Z,20.05
2018-12-19T14:26:44.026Z,18.95
2018-12-19T14:29:16.106Z,17.82
2018-12-19T14:31:47.350Z,20.75
2018-12-19T14:34:20.100Z,18.40
2018-12-19T14:36:51.638Z,18.77
2018-12-19T14:39:23.959Z,18.48
2018-12-19T14:41:56.000Z,19.20
2018-12-19T14:44:28.618Z,20.50
2018-12-19T14:47:00.777Z,19.23
2018-12-19T14:49:32.756Z,21.82
2018-12-19T14:52:04.196Z,18.37
2018-12-19T14:54:36.417Z,21.48
2018-12-19T14:57:08.554Z,20.23
2018-12-19T14:59:40.335Z,21.20
2018-12-19T15:02:12.688Z,20.48
2018-12-19T15:04:44.690Z,19.10
2018-12-19T15:07:16.830Z,74.67
2018-12-19T15:09:48.813Z,18.55
2018-12-19T15:12:25.694Z,18.95
2018-12-19T15:14:55.414Z,20.88
2018-12-19T15:17:26.974Z,21.52
2018-12-19T15:19:59.014Z,20.17
2018-12-19T15:22:30.494Z,23.62
2018-12-19T15:25:03.034Z,19.55
2018-12-19T15:27:35.252Z,19.80
2018-12-19T15:30:07.021Z,19.60
2018-12-19T15:32:39.279Z,19.57
2018-12-19T15:35:12.112Z,21.57
2018-12-19T15:37:43.887Z,18.42
2018-12-19T15:40:15.482Z,19.32
2018-12-19T15:42:47.779Z,17.12
2018-12-19T15:45:18.926Z,17.90
2018-12-19T15:47:50.300Z,17.50
2018-12-19T15:50:22.087Z,17.17
2018-12-19T15:52:54.306Z,17.23
2018-12-19T15:55:26.817Z,18.17
2018-12-19T15:57:58.215Z,20.72
2018-12-19T16:00:29.916Z,18.92
2018-12-19T16:03:02.368Z,14.65
2018-12-19T16:05:33.073Z,13.80
2018-12-19T16:08:04.593Z,15.40
2018-12-19T16:10:36.530Z,18.82
2018-12-19T16:13:09.236Z,13.15
2018-12-19T16:15:40.379Z,13.62
2018-12-19T16:18:12.618Z,14.23
2018-12-19T16:20:44.398Z,14.30
2018-12-19T16:23:15.701Z,12.75
2018-12-19T16:25:47.266Z,13.10
2018-12-19T16:28:18.264Z,14.78
2018-12-19T16:30:49.657Z,13.90
2018-12-19T16:33:21.118Z,17.75
2018-12-19T16:35:52.652Z,15.28
2018-12-19T16:38:23.660Z,19.95
2018-12-19T16:40:56.061Z,19.45
2018-12-19T16:43:27.862Z,16.42
2018-12-19T16:45:59.722Z,17.67
2018-12-19T16:48:30.881Z,19.23
2018-12-19T16:51:04.122Z,17.35
2018-12-19T16:53:36.222Z,17.17
2018-12-19T16:56:09.266Z,18.57
2018-12-19T16:58:41.045Z,18.23
2018-12-19T17:01:13.740Z,19.57
2018-12-19T17:03:45.421Z,35.43
2018-12-19T17:06:17.402Z,22.00
2018-12-19T17:08:49.000Z,20.40
2018-12-19T17:11:22.122Z,22.90
2018-12-19T17:13:53.905Z,23.77
2018-12-19T17:16:26.141Z,21.55
2018-12-19T17:18:57.663Z,22.00
2018-12-19T17:21:30.143Z,19.57
2018-12-19T17:24:01.663Z,20.12
2018-12-19T17:26:33.522Z,16.62
2018-12-19T17:29:05.421Z,23.80
2018-12-19T17:31:37.202Z,22.00
2018-12-19T17:34:08.801Z,20.45
2018-12-19T17:36:40.621Z,21.52
2018-12-19T17:39:12.141Z,21.82
2018-12-19T17:41:44.021Z,21.20
2018-12-19T17:44:16.646Z,21.93
2018-12-19T17:46:48.982Z,21.15
2018-12-19T17:49:20.822Z,23.35
2018-12-19T17:51:52.992Z,23.70
2018-12-19T17:54:25.062Z,22.27
2018-12-19T17:56:57.162Z,25.30
2018-12-19T17:59:28.922Z,20.32
2018-12-19T18:02:02.421Z,21.82
2018-12-19T18:04:33.761Z,20.88
2018-12-19T18:07:06.642Z,21.52
2018-12-19T18:09:38.861Z,21.12
2018-12-19T18:12:11.002Z,21.12
2018-12-19T18:14:43.242Z,22.05
2018-12-19T18:17:15.504Z,19.48
2018-12-19T18:19:47.882Z,20.72
2018-12-19T18:22:20.403Z,20.40
2018-12-19T18:24:52.263Z,20.25
2018-12-19T18:27:25.285Z,19.70
2018-12-19T18:29:57.802Z,15.38
2018-12-19T18:32:30.263Z,17.40
2018-12-19T18:35:00.778Z,20.00
2018-12-19T18:37:33.447Z,18.80
2018-12-19T18:40:05.882Z,18.35
2018-12-19T18:42:37.722Z,21.12
2018-12-19T18:45:11.976Z,18.00
2018-12-19T18:47:44.082Z,22.87
2018-12-19T18:50:15.542Z,22.70
2018-12-19T18:52:47.304Z,22.67
2018-12-19T18:55:18.783Z,23.67
2018-12-19T18:57:51.164Z,26.40
2018-12-19T19:00:27.224Z,19.35
2018-12-19T19:02:59.150Z,20.17
2018-12-19T19:05:30.835Z,20.12
2018-12-19T19:08:03.207Z,25.12
2018-12-19T19:10:34.703Z,19.82
2018-12-19T19:13:06.765Z,21.10
2018-12-19T19:15:38.467Z,20.15
2018-12-19T19:18:10.623Z,21.55
2018-12-19T19:20:43.863Z,19.02
2018-12-19T19:23:15.187Z,22.25
2018-12-19T19:25:48.123Z,20.23
2018-12-19T19:28:20.086Z,21.62
2018-12-19T19:30:52.143Z,18.00
2018-12-19T19:33:24.943Z,19.12
2018-12-19T19:35:56.804Z,20.30
2018-12-19T19:38:28.564Z,18.07
2018-12-19T19:41:00.444Z,17.70
2018-12-19T19:43:32.324Z,15.88
2018-12-19T19:46:04.465Z,17.75
2018-12-19T19:48:36.344Z,17.12
2018-12-19T19:51:08.504Z,17.15
2018-12-19T19:53:40.563Z,17.25
2018-12-19T19:56:13.065Z,15.38
2018-12-19T19:58:44.925Z,14.40
2018-12-19T20:01:16.903Z,14.85
2018-12-19T20:03:48.847Z,15.40
2018-12-19T20:06:20.665Z,19.70
2018-12-19T20:08:52.825Z,20.52
2018-12-19T20:11:25.164Z,16.37
2018-12-19T20:13:56.723Z,15.90
2018-12-19T20:16:29.504Z,16.10
2018-12-19T20:19:01.823Z,18.57
2018-12-19T20:21:33.924Z,16.20
2018-12-19T20:24:06.124Z,16.10
2018-12-19T20:26:38.767Z,17.67
2018-12-19T20:29:10.901Z,17.10
2018-12-19T20:31:43.489Z,18.17
2018-12-19T20:34:16.304Z,16.90
2018-12-19T20:36:48.447Z,15.25
2018-12-19T20:39:20.307Z,14.73
2018-12-19T20:41:53.543Z,14.98
2018-12-19T20:44:25.767Z,13.83
2018-12-19T20:46:57.525Z,15.85
2018-12-19T20:49:29.544Z,13.70
2018-12-19T20:52:02.044Z,16.52
2018-12-19T20:54:33.637Z,15.60
2018-12-19T20:57:06.045Z,14.23
2018-12-19T20:59:38.095Z,16.35
2018-12-19T21:02:09.903Z,15.28
2018-12-19T21:04:41.508Z,27.42
2018-12-19T21:07:13.423Z,17.82
2018-12-19T21:09:45.484Z,17.07
2018-12-19T21:12:17.163Z,16.93
2018-12-19T21:14:48.943Z,18.48
2018-12-19T21:19:33.764Z,16.75
2018-12-19T21:22:08.283Z,17.77
2018-12-19T21:24:40.083Z,16.52
2018-12-19T21:27:11.764Z,16.62
2018-12-19T21:29:43.283Z,18.30
2018-12-19T21:32:15.243Z,21.00
2018-12-19T21:34:47.848Z,20.75
2018-12-19T21:37:20.944Z,21.00
2018-12-19T21:39:53.143Z,23.73
2018-12-19T21:42:25.385Z,22.32
2018-12-19T21:44:57.764Z,28.50
2018-12-19T21:47:29.966Z,22.77
2018-12-19T21:50:01.428Z,21.55
2018-12-19T21:52:33.939Z,22.13
2018-12-19T21:55:06.149Z,23.18
2018-12-19T21:57:38.679Z,22.75
2018-12-19T22:00:15.304Z,21.40
2018-12-19T22:02:48.210Z,21.37
2018-12-19T22:05:20.684Z,21.12
2018-12-19T22:07:52.996Z,20.75
2018-12-19T22:10:24.986Z,21.27
2018-12-19T22:12:57.282Z,20.72
2018-12-19T22:15:29.083Z,26.60
2018-12-19T22:18:05.970Z,23.18
2018-12-19T22:20:38.405Z,22.77
2018-12-19T22:23:10.761Z,25.43
2018-12-19T22:25:43.166Z,23.92
2018-12-19T22:28:15.327Z,21.45
2018-12-19T22:30:46.639Z,21.75
2018-12-19T22:33:18.115Z,19.17
2018-12-19T22:35:50.584Z,19.05
2018-12-19T22:38:22.516Z,19.15
2018-12-19T22:40:54.704Z,18.27
2018-12-19T22:43:27.853Z,19.00
2018-12-19T22:46:00.325Z,22.58
2018-12-19T22:48:32.644Z,18.15
2018-12-19T22:51:04.147Z,17.60
2018-12-19T22:53:36.744Z,17.30
2018-12-19T22:56:09.492Z,17.00
2018-12-19T22:58:41.463Z,18.52
2018-12-19T23:01:17.843Z,19.30
2018-12-19T23:03:53.996Z,16.87
2018-12-19T23:06:26.565Z,18.25
2018-12-19T23:08:59.426Z,18.25
2018-12-19T23:11:31.082Z,15.58
2018-12-19T23:14:02.295Z,14.70
2018-12-19T23:16:33.464Z,10.50
2018-12-19T23:19:05.809Z,8.78
2018-12-19T23:21:37.125Z,7.62
2018-12-19T23:24:09.503Z,8.60
2018-12-19T23:26:41.687Z,6.90
2018-12-19T23:29:15.047Z,8.70
2018-12-19T23:31:47.406Z,8.95
2018-12-19T23:34:20.666Z,7.87
2018-12-19T23:36:52.546Z,9.28
2018-12-19T23:39:24.081Z,9.15
2018-12-19T23:41:55.502Z,8.40
2018-12-19T23:44:33.222Z,10.23
2018-12-19T23:47:05.903Z,11.83
2018-12-19T23:49:37.304Z,9.88
2018-12-19T23:52:09.682Z,11.55
2018-12-19T23:54:41.143Z,11.75
2018-12-19T23:57:13.613Z,12.37
2018-12-19T23:59:45.447Z,13.10
